createdAt,value
2019-04-16T00:02:09.194Z,10.10
2019-04-16T00:04:56.756Z,10.00
2019-04-16T00:07:53.497Z,9.90
2019-04-16T00:10:58.631Z,9.90
2019-04-16T00:13:54.103Z,9.90
2019-04-16T00:16:21.287Z,9.80
2019-04-16T00:18:57.349Z,9.80
2019-04-16T00:21:42.644Z,9.80
2019-04-16T00:24:34.925Z,9.80
2019-04-16T00:27:01.944Z,9.70
2019-04-16T00:29:32.570Z,9.70
2019-04-16T00:32:17.179Z,9.70
2019-04-16T00:34:44.862Z,9.70
2019-04-16T00:37:12.391Z,9.60
2019-04-16T00:39:39.208Z,9.60
2019-04-16T00:42:05.996Z,9.50
2019-04-16T00:44:32.801Z,9.50
2019-04-16T00:46:59.778Z,9.50
2019-04-16T00:49:27.208Z,9.50
2019-04-16T00:51:54.454Z,9.40
2019-04-16T00:54:21.367Z,9.40
2019-04-16T00:56:48.111Z,9.40
2019-04-16T00:59:14.903Z,9.20
2019-04-16T01:01:41.669Z,9.30
2019-04-16T01:04:08.458Z,9.30
2019-04-16T01:06:37.993Z,9.30
2019-04-16T01:09:05.711Z,9.30
2019-04-16T01:11:32.579Z,9.30
2019-04-16T01:13:59.326Z,9.20
2019-04-16T01:16:26.259Z,9.20
2019-04-16T01:18:53.027Z,9.20
2019-04-16T01:21:19.887Z,9.10
2019-04-16T01:23:49.354Z,9.00
2019-04-16T01:26:15.590Z,9.00
2019-04-16T01:28:48.667Z,9.00
2019-04-16T01:31:31.743Z,9.00
2019-04-16T01:34:10.507Z,9.00
2019-04-16T01:36:58.203Z,9.00
2019-04-16T01:39:26.912Z,9.00
2019-04-16T01:41:53.827Z,9.00
2019-04-16T01:44:20.615Z,8.90
2019-04-16T01:46:47.487Z,8.90
2019-04-16T01:49:14.363Z,8.90
2019-04-16T01:51:41.256Z,8.90
2019-04-16T01:54:08.121Z,8.90
2019-04-16T01:56:34.906Z,8.90
2019-04-16T01:59:04.540Z,8.80
2019-04-16T02:01:30.405Z,8.80
2019-04-16T02:03:57.255Z,8.70
2019-04-16T02:06:26.062Z,8.80
2019-04-16T02:08:52.919Z,8.80
2019-04-16T02:11:19.959Z,8.80
2019-04-16T02:13:47.003Z,8.70
2019-04-16T02:16:14.316Z,8.70
2019-04-16T02:18:41.428Z,8.70
2019-04-16T02:21:10.752Z,8.70
2019-04-16T02:23:37.107Z,8.70
2019-04-16T02:26:04.113Z,8.70
2019-04-16T02:28:31.153Z,8.60
2019-04-16T02:30:58.151Z,8.60
2019-04-16T02:33:25.135Z,8.60
2019-04-16T02:35:51.871Z,8.60
2019-04-16T02:38:18.779Z,8.50
2019-04-16T02:40:51.390Z,8.50
2019-04-16T02:43:14.488Z,8.40
2019-04-16T02:45:41.331Z,8.40
2019-04-16T02:48:14.961Z,8.70
2019-04-16T02:50:49.068Z,8.40
2019-04-16T02:53:39.056Z,8.40
2019-04-16T02:56:25.984Z,8.40
2019-04-16T02:59:15.564Z,8.40
2019-04-16T03:02:23.050Z,8.40
2019-04-16T03:04:59.819Z,8.40
2019-04-16T03:07:26.801Z,8.40
2019-04-16T03:10:01.064Z,8.40
2019-04-16T03:12:22.412Z,8.40
2019-04-16T03:14:49.505Z,8.40
2019-04-16T03:17:45.126Z,8.40
2019-04-16T03:20:13.226Z,8.40
2019-04-16T03:22:40.147Z,8.40
2019-04-16T03:25:12.614Z,8.30
2019-04-16T03:27:36.260Z,8.30
2019-04-16T03:30:06.039Z,8.30
2019-04-16T03:32:45.880Z,8.30
2019-04-16T03:35:12.775Z,8.30
2019-04-16T03:37:39.515Z,8.20
2019-04-16T03:40:16.478Z,8.20
2019-04-16T03:42:35.246Z,8.30
2019-04-16T03:45:02.084Z,8.30
2019-04-16T03:47:28.939Z,8.20
2019-04-16T03:49:56.416Z,8.20
2019-04-16T03:52:24.424Z,8.20
2019-04-16T03:54:53.755Z,8.20
2019-04-16T03:57:19.827Z,8.10
2019-04-16T03:59:46.592Z,8.10
2019-04-16T04:02:15.368Z,8.10
2019-04-16T04:04:42.333Z,8.10
2019-04-16T04:07:12.079Z,8.00
2019-04-16T04:09:37.964Z,8.10
2019-04-16T04:12:04.811Z,8.00
2019-04-16T04:14:31.587Z,8.00
2019-04-16T04:16:58.289Z,8.00
2019-04-16T04:19:25.006Z,8.00
2019-04-16T04:21:53.720Z,7.90
2019-04-16T04:24:20.499Z,7.90
2019-04-16T04:26:47.446Z,7.90
2019-04-16T04:29:14.256Z,7.90
2019-04-16T04:31:41.295Z,7.90
2019-04-16T04:34:10.074Z,7.90
2019-04-16T04:36:36.703Z,7.90
2019-04-16T04:39:08.966Z,7.90
2019-04-16T04:41:34.377Z,7.90
2019-04-16T04:44:04.419Z,7.90
2019-04-16T04:46:30.003Z,7.90
2019-04-16T04:49:00.031Z,7.90
2019-04-16T04:51:25.398Z,7.90
2019-04-16T04:53:52.159Z,7.90
2019-04-16T04:56:19.910Z,7.90
2019-04-16T04:58:47.134Z,7.80
2019-04-16T05:01:14.360Z,7.90
2019-04-16T05:03:48.942Z,7.90
2019-04-16T05:06:18.971Z,7.90
2019-04-16T05:08:45.848Z,7.90
2019-04-16T05:11:15.821Z,7.90
2019-04-16T05:13:41.431Z,8.00
2019-04-16T05:16:08.383Z,8.00
2019-04-16T05:18:35.239Z,8.00
2019-04-16T05:21:02.078Z,8.00
2019-04-16T05:23:28.835Z,8.10
2019-04-16T05:25:55.560Z,8.10
2019-04-16T05:28:22.365Z,8.20
2019-04-16T05:30:51.780Z,8.30
2019-04-16T05:33:17.911Z,8.30
2019-04-16T05:35:44.627Z,8.40
2019-04-16T05:38:11.385Z,8.60
2019-04-16T05:40:38.307Z,8.70
2019-04-16T05:43:05.159Z,8.70
2019-04-16T05:45:34.452Z,8.80
2019-04-16T05:48:00.819Z,8.80
2019-04-16T05:50:29.630Z,8.80
2019-04-16T05:52:56.659Z,8.90
2019-04-16T05:55:32.023Z,9.00
2019-04-16T05:57:58.957Z,9.00
2019-04-16T06:00:38.546Z,9.10
2019-04-16T06:03:05.858Z,9.20
2019-04-16T06:05:32.768Z,9.30
2019-04-16T06:08:25.335Z,9.50
2019-04-16T06:10:52.278Z,9.70
2019-04-16T06:13:33.198Z,10.30
2019-04-16T06:16:25.375Z,10.90
2019-04-16T06:19:11.590Z,11.60
2019-04-16T06:21:57.263Z,12.30
2019-04-16T06:24:49.463Z,12.90
2019-04-16T06:27:34.699Z,13.30
2019-04-16T06:30:26.363Z,13.80
2019-04-16T06:32:56.387Z,14.20
2019-04-16T06:35:43.098Z,15.00
2019-04-16T06:38:08.327Z,15.60
2019-04-16T06:40:55.436Z,16.10
2019-04-16T06:43:26.282Z,16.60
2019-04-16T06:46:14.754Z,17.30
2019-04-16T06:49:00.272Z,17.60
2019-04-16T06:51:44.459Z,17.90
2019-04-16T06:54:32.059Z,18.20
2019-04-16T06:57:15.363Z,18.10
2019-04-16T06:59:50.989Z,18.70
2019-04-16T07:03:01.087Z,19.40
2019-04-16T07:05:26.627Z,19.80
2019-04-16T07:08:36.516Z,19.90
2019-04-16T07:10:54.790Z,20.00
2019-04-16T07:13:21.652Z,20.50
2019-04-16T07:15:48.627Z,20.70
2019-04-16T07:18:15.515Z,20.60
2019-04-16T07:20:45.656Z,19.70
2019-04-16T07:23:12.639Z,19.00
2019-04-16T07:25:42.732Z,19.10
2019-04-16T07:28:18.189Z,19.60
2019-04-16T07:30:56.131Z,20.10
2019-04-16T07:33:45.283Z,20.30
2019-04-16T07:36:27.160Z,20.00
2019-04-16T07:39:30.891Z,20.30
2019-04-16T07:42:10.726Z,20.00
2019-04-16T07:44:59.803Z,20.80
2019-04-16T07:47:51.628Z,21.10
2019-04-16T07:50:33.441Z,21.80
2019-04-16T07:53:13.549Z,20.70
2019-04-16T07:55:53.343Z,20.00
2019-04-16T07:58:20.223Z,19.60
2019-04-16T08:00:47.244Z,19.60
2019-04-16T08:03:13.999Z,19.60
2019-04-16T08:05:41.833Z,19.20
2019-04-16T08:08:09.008Z,18.70
2019-04-16T08:10:35.867Z,18.20
2019-04-16T08:13:14.207Z,18.20
2019-04-16T08:15:41.383Z,18.60
2019-04-16T08:18:08.236Z,17.90
2019-04-16T08:20:35.094Z,18.70
2019-04-16T08:23:06.380Z,19.60
2019-04-16T08:25:34.244Z,20.50
2019-04-16T08:28:01.773Z,20.50
2019-04-16T08:30:34.626Z,21.30
2019-04-16T08:32:57.403Z,21.50
2019-04-16T08:35:24.252Z,21.90
2019-04-16T08:37:51.107Z,21.70
2019-04-16T08:40:17.983Z,21.40
2019-04-16T08:42:45.141Z,21.20
2019-04-16T08:45:12.600Z,20.80
2019-04-16T08:47:44.568Z,21.70
2019-04-16T08:50:11.352Z,22.30
2019-04-16T08:52:38.605Z,23.10
2019-04-16T08:55:06.063Z,22.80
2019-04-16T08:57:33.115Z,22.60
2019-04-16T08:59:59.931Z,22.70
2019-04-16T09:02:27.807Z,22.60
2019-04-16T09:04:54.668Z,22.20
2019-04-16T09:07:40.125Z,21.70
2019-04-16T09:10:18.026Z,22.30
2019-04-16T09:12:44.917Z,22.30
2019-04-16T09:15:09.309Z,22.30
2019-04-16T09:17:41.107Z,21.90
2019-04-16T09:20:28.478Z,21.20
2019-04-16T09:22:58.320Z,20.70
2019-04-16T09:25:36.307Z,20.20
2019-04-16T09:28:31.115Z,20.00
2019-04-16T09:31:26.240Z,20.00
2019-04-16T09:33:57.430Z,20.60
2019-04-16T09:36:38.037Z,21.60
2019-04-16T09:39:24.890Z,22.20
2019-04-16T09:41:52.318Z,22.50
2019-04-16T09:44:19.221Z,22.70
2019-04-16T09:46:50.982Z,23.40
2019-04-16T09:49:14.817Z,24.70
2019-04-16T09:51:41.995Z,25.40
2019-04-16T09:54:12.696Z,25.40
2019-04-16T09:56:37.456Z,24.70
2019-04-16T09:59:23.431Z,24.80
2019-04-16T10:01:54.680Z,26.00
2019-04-16T10:04:21.938Z,26.50
2019-04-16T10:06:48.859Z,27.60
2019-04-16T10:09:19.851Z,28.20
2019-04-16T10:11:44.654Z,27.90
2019-04-16T10:14:11.397Z,27.70
2019-04-16T10:16:38.351Z,27.60
2019-04-16T10:19:08.410Z,29.00
2019-04-16T10:21:34.026Z,28.80
2019-04-16T10:24:19.039Z,28.60
2019-04-16T10:26:49.084Z,28.00
2019-04-16T10:29:16.707Z,27.20
2019-04-16T10:31:43.692Z,28.10
2019-04-16T10:34:10.703Z,28.20
2019-04-16T10:36:38.187Z,27.90
2019-04-16T10:39:26.188Z,27.30
2019-04-16T10:42:03.846Z,26.60
2019-04-16T10:44:49.027Z,26.10
2019-04-16T10:47:35.735Z,25.90
2019-04-16T10:50:19.981Z,27.20
2019-04-16T10:53:05.080Z,28.70
2019-04-16T10:55:50.326Z,27.60
2019-04-16T10:58:39.754Z,27.00
2019-04-16T11:01:12.096Z,27.40
2019-04-16T11:03:49.671Z,28.70
2019-04-16T11:06:39.398Z,28.60
2019-04-16T11:09:06.327Z,27.50
2019-04-16T11:11:33.255Z,29.10
2019-04-16T11:14:00.759Z,29.40
2019-04-16T11:16:27.763Z,29.40
2019-04-16T11:18:55.195Z,29.80
2019-04-16T11:21:22.402Z,28.90
2019-04-16T11:23:49.250Z,29.20
2019-04-16T11:26:16.214Z,29.60
2019-04-16T11:28:42.951Z,30.00
2019-04-16T11:31:18.154Z,29.70
2019-04-16T11:33:44.944Z,28.10
2019-04-16T11:36:19.380Z,26.50
2019-04-16T11:38:40.737Z,26.70
2019-04-16T11:41:07.561Z,26.20
2019-04-16T11:43:34.495Z,25.40
2019-04-16T11:46:01.487Z,24.60
2019-04-16T11:48:28.322Z,24.00
2019-04-16T11:50:55.333Z,24.60
2019-04-16T11:53:22.055Z,24.90
2019-04-16T11:55:48.934Z,24.70
2019-04-16T11:58:26.707Z,25.20
2019-04-16T12:00:58.816Z,25.50
2019-04-16T12:03:42.982Z,25.20
2019-04-16T12:06:28.284Z,25.70
2019-04-16T12:09:08.815Z,26.70
2019-04-16T12:11:47.257Z,26.00
2019-04-16T12:14:30.739Z,26.50
2019-04-16T12:16:55.986Z,27.50
2019-04-16T12:19:46.107Z,27.70
2019-04-16T12:22:21.291Z,28.00
2019-04-16T12:25:13.534Z,28.40
2019-04-16T12:28:12.191Z,27.80
2019-04-16T12:30:56.068Z,27.30
2019-04-16T12:33:35.971Z,27.50
2019-04-16T12:36:14.112Z,27.30
2019-04-16T12:38:57.495Z,27.60
2019-04-16T12:41:42.342Z,26.90
2019-04-16T12:44:27.469Z,26.80
2019-04-16T12:47:06.438Z,26.30
2019-04-16T12:50:02.160Z,25.20
2019-04-16T12:52:37.755Z,24.90
2019-04-16T12:55:23.922Z,24.60
2019-04-16T12:58:13.318Z,24.40
2019-04-16T13:00:47.760Z,24.10
2019-04-16T13:03:34.283Z,23.50
2019-04-16T13:06:19.405Z,23.10
2019-04-16T13:09:11.707Z,22.90
2019-04-16T13:12:09.744Z,22.50
2019-04-16T13:15:00.763Z,22.70
2019-04-16T13:17:41.655Z,22.40
2019-04-16T13:20:29.617Z,22.50
2019-04-16T13:22:58.651Z,22.30
2019-04-16T13:25:31.331Z,22.20
2019-04-16T13:27:58.059Z,22.00
2019-04-16T13:30:24.986Z,21.70
2019-04-16T13:32:51.772Z,21.60
2019-04-16T13:35:18.762Z,21.70
2019-04-16T13:37:45.605Z,21.90
2019-04-16T13:40:14.907Z,22.20
2019-04-16T13:42:41.807Z,22.10
2019-04-16T13:45:25.590Z,21.90
2019-04-16T13:47:54.827Z,21.40
2019-04-16T13:50:39.848Z,21.10
2019-04-16T13:53:22.939Z,20.80
2019-04-16T13:56:25.268Z,21.60
2019-04-16T13:59:13.199Z,20.60
2019-04-16T14:01:46.221Z,20.70
2019-04-16T14:04:13.075Z,20.60
2019-04-16T14:06:39.971Z,20.50
2019-04-16T14:09:07.880Z,20.60
2019-04-16T14:11:34.722Z,20.60
2019-04-16T14:14:01.526Z,20.50
2019-04-16T14:16:28.405Z,20.60
2019-04-16T14:18:55.445Z,20.70
2019-04-16T14:21:22.177Z,20.70
2019-04-16T14:23:49.155Z,20.40
2019-04-16T14:26:16.167Z,20.30
2019-04-16T14:28:51.775Z,20.20
2019-04-16T14:31:16.400Z,20.20
2019-04-16T14:33:47.059Z,19.90
2019-04-16T14:36:14.483Z,19.90
2019-04-16T14:38:45.818Z,19.80
2019-04-16T14:41:15.826Z,19.70
2019-04-16T14:43:44.244Z,19.80
2019-04-16T14:46:11.295Z,19.90
2019-04-16T14:48:42.478Z,20.10
2019-04-16T14:51:06.891Z,20.20
2019-04-16T14:53:42.856Z,20.20
2019-04-16T14:56:24.120Z,20.30
2019-04-16T14:59:00.491Z,20.60
2019-04-16T15:01:47.598Z,20.80
2019-04-16T15:04:18.968Z,21.00
2019-04-16T15:06:53.641Z,21.20
2019-04-16T15:09:33.151Z,21.30
2019-04-16T15:12:25.418Z,21.00
2019-04-16T15:14:56.511Z,20.80
2019-04-16T15:17:30.465Z,20.50
2019-04-16T15:20:07.536Z,20.60
2019-04-16T15:22:47.363Z,20.50
2019-04-16T15:25:49.455Z,20.20
2019-04-16T15:28:28.151Z,20.00
2019-04-16T15:31:11.480Z,19.90
2019-04-16T15:33:43.642Z,19.90
2019-04-16T15:36:19.585Z,19.90
2019-04-16T15:39:05.923Z,19.80
2019-04-16T15:41:44.592Z,19.80
2019-04-16T15:44:37.283Z,19.60
2019-04-16T15:47:43.007Z,19.50
2019-04-16T15:50:25.559Z,19.30
2019-04-16T15:52:56.152Z,19.40
2019-04-16T15:55:47.596Z,19.30
2019-04-16T15:58:27.651Z,19.30
2019-04-16T16:01:20.154Z,19.30
2019-04-16T16:03:55.108Z,19.20
2019-04-16T16:06:23.579Z,19.20
2019-04-16T16:08:58.023Z,19.10
2019-04-16T16:11:30.267Z,19.10
2019-04-16T16:14:00.398Z,19.20
2019-04-16T16:16:40.535Z,19.20
2019-04-16T16:18:54.628Z,19.10
2019-04-16T16:21:21.645Z,19.10
2019-04-16T16:23:48.525Z,19.10
2019-04-16T16:26:15.323Z,19.00
2019-04-16T16:28:42.205Z,18.90
2019-04-16T16:31:09.230Z,19.00
2019-04-16T16:33:36.099Z,19.00
2019-04-16T16:36:02.983Z,18.90
2019-04-16T16:38:29.855Z,18.90
2019-04-16T16:40:56.750Z,18.90
2019-04-16T16:43:23.615Z,18.80
2019-04-16T16:46:14.025Z,18.80
2019-04-16T16:48:40.773Z,18.70
2019-04-16T16:51:07.725Z,18.60
2019-04-16T16:53:57.854Z,18.70
2019-04-16T16:56:34.220Z,18.70
2019-04-16T16:59:13.952Z,18.60
2019-04-16T17:01:58.267Z,18.60
2019-04-16T17:04:28.959Z,18.60
2019-04-16T17:06:56.022Z,18.60
2019-04-16T17:09:31.227Z,18.50
2019-04-16T17:11:58.602Z,18.60
2019-04-16T17:14:25.556Z,18.40
2019-04-16T17:16:52.447Z,18.40
2019-04-16T17:19:19.355Z,18.30
2019-04-16T17:21:46.426Z,18.20
2019-04-16T17:24:13.162Z,18.10
2019-04-16T17:26:40.036Z,18.10
2019-04-16T17:29:06.918Z,18.10
2019-04-16T17:31:36.026Z,17.90
2019-04-16T17:34:02.863Z,17.90
2019-04-16T17:36:29.807Z,17.80
2019-04-16T17:38:56.507Z,17.70
2019-04-16T17:41:28.995Z,17.70
2019-04-16T17:44:05.480Z,17.60
2019-04-16T17:46:51.843Z,17.50
2019-04-16T17:49:26.911Z,17.40
2019-04-16T17:52:03.412Z,17.40
2019-04-16T17:54:36.483Z,17.20
2019-04-16T17:57:23.288Z,17.20
2019-04-16T18:00:00.490Z,17.20
2019-04-16T18:02:46.483Z,17.20
2019-04-16T18:05:26.494Z,17.10
2019-04-16T18:08:17.828Z,17.10
2019-04-16T18:10:48.950Z,17.00
2019-04-16T18:13:32.915Z,16.90
2019-04-16T18:16:06.213Z,16.90
2019-04-16T18:18:40.179Z,16.90
2019-04-16T18:21:25.083Z,16.80
2019-04-16T18:24:00.012Z,16.60
2019-04-16T18:26:45.158Z,16.60
2019-04-16T18:29:17.476Z,16.50
2019-04-16T18:32:03.951Z,16.40
2019-04-16T18:34:43.471Z,16.30
2019-04-16T18:37:27.740Z,16.20
2019-04-16T18:40:07.901Z,16.20
2019-04-16T18:42:51.239Z,16.10
2019-04-16T18:45:29.308Z,16.10
2019-04-16T18:48:05.217Z,16.10
2019-04-16T18:50:30.763Z,16.00
2019-04-16T18:52:57.870Z,16.10
2019-04-16T18:55:24.777Z,15.90
2019-04-16T18:57:52.349Z,16.00
2019-04-16T19:00:54.655Z,16.00
2019-04-16T19:03:21.603Z,16.00
2019-04-16T19:05:48.535Z,16.00
2019-04-16T19:08:15.616Z,15.90
2019-04-16T19:10:42.663Z,15.80
2019-04-16T19:13:11.609Z,15.80
2019-04-16T19:15:38.708Z,15.70
2019-04-16T19:18:18.489Z,15.70
2019-04-16T19:20:34.441Z,15.70
2019-04-16T19:23:01.401Z,15.70
2019-04-16T19:25:28.441Z,15.50
2019-04-16T19:27:55.184Z,15.50
2019-04-16T19:30:22.883Z,15.50
2019-04-16T19:32:49.840Z,15.50
2019-04-16T19:35:20.563Z,15.50
2019-04-16T19:37:45.468Z,15.40
2019-04-16T19:40:12.535Z,15.40
2019-04-16T19:42:39.563Z,15.40
2019-04-16T19:45:08.935Z,15.30
2019-04-16T19:47:35.516Z,15.40
2019-04-16T19:50:03.302Z,15.40
2019-04-16T19:52:30.525Z,15.30
2019-04-16T19:54:57.292Z,15.30
2019-04-16T19:57:24.865Z,15.30
2019-04-16T19:59:51.649Z,15.40
2019-04-16T20:02:18.803Z,15.30
2019-04-16T20:04:45.775Z,15.20
2019-04-16T20:07:12.567Z,15.20
2019-04-16T20:09:39.339Z,15.20
2019-04-16T20:12:06.038Z,15.40
2019-04-16T20:14:36.603Z,15.20
2019-04-16T20:17:03.766Z,15.20
2019-04-16T20:19:30.894Z,15.20
2019-04-16T20:21:58.443Z,15.20
2019-04-16T20:24:25.194Z,15.20
2019-04-16T20:26:51.924Z,15.10
2019-04-16T20:29:18.719Z,15.10
2019-04-16T20:31:45.778Z,15.10
2019-04-16T20:34:13.245Z,15.00
2019-04-16T20:36:40.296Z,15.10
2019-04-16T20:39:08.013Z,15.00
2019-04-16T20:41:35.066Z,15.00
2019-04-16T20:44:04.261Z,15.00
2019-04-16T20:46:31.127Z,15.00
2019-04-16T20:49:08.244Z,14.90
2019-04-16T20:51:27.337Z,14.80
2019-04-16T20:53:54.505Z,14.70
2019-04-16T20:56:21.868Z,14.50
2019-04-16T20:58:48.707Z,14.50
2019-04-16T21:01:32.247Z,14.40
2019-04-16T21:04:03.866Z,14.40
2019-04-16T21:06:24.339Z,14.30
2019-04-16T21:08:56.066Z,14.30
2019-04-16T21:11:20.259Z,14.30
2019-04-16T21:13:49.954Z,14.20
2019-04-16T21:16:15.805Z,14.00
2019-04-16T21:18:42.871Z,14.20
2019-04-16T21:21:09.738Z,14.30
2019-04-16T21:23:36.766Z,14.10
2019-04-16T21:26:04.211Z,14.20
2019-04-16T21:28:38.119Z,14.20
2019-04-16T21:31:14.049Z,14.20
2019-04-16T21:34:03.619Z,14.10
2019-04-16T21:36:44.871Z,14.10
2019-04-16T21:39:19.907Z,14.00
2019-04-16T21:41:46.772Z,14.00
2019-04-16T21:44:13.663Z,14.00
2019-04-16T21:46:41.379Z,14.00
2019-04-16T21:49:09.056Z,13.90
2019-04-16T21:51:39.742Z,14.00
2019-04-16T21:54:06.603Z,13.80
2019-04-16T21:56:33.721Z,13.90
2019-04-16T21:59:00.550Z,13.90
2019-04-16T22:01:37.761Z,13.90
2019-04-16T22:04:13.515Z,13.90
2019-04-16T22:06:36.839Z,13.90
2019-04-16T22:09:05.176Z,13.90
2019-04-16T22:11:32.063Z,13.90
2019-04-16T22:13:59.928Z,13.90
2019-04-16T22:16:29.978Z,13.90
2019-04-16T22:18:55.439Z,13.90
2019-04-16T22:21:22.307Z,13.90
2019-04-16T22:23:50.517Z,13.80
2019-04-16T22:26:18.218Z,13.80
2019-04-16T22:28:45.121Z,13.80
2019-04-16T22:31:11.903Z,13.80
2019-04-16T22:33:38.959Z,13.70
2019-04-16T22:36:05.816Z,13.70
2019-04-16T22:38:35.089Z,13.70
2019-04-16T22:41:16.771Z,13.70
2019-04-16T22:44:03.350Z,13.60
2019-04-16T22:46:36.170Z,13.60
2019-04-16T22:49:03.326Z,13.70
2019-04-16T22:51:30.470Z,13.70
2019-04-16T22:53:57.347Z,13.70
2019-04-16T22:56:33.341Z,13.70
2019-04-16T22:59:00.349Z,13.70
2019-04-16T23:01:27.864Z,13.70
2019-04-16T23:03:54.586Z,13.60
2019-04-16T23:06:21.310Z,13.60
2019-04-16T23:08:48.051Z,13.60
2019-04-16T23:11:14.807Z,13.60
2019-04-16T23:13:41.677Z,13.60
2019-04-16T23:16:08.451Z,13.60
2019-04-16T23:18:35.180Z,13.60
2019-04-16T23:21:02.115Z,13.60
2019-04-16T23:23:29.091Z,13.60
2019-04-16T23:25:58.999Z,13.60
2019-04-16T23:28:24.554Z,13.60
2019-04-16T23:30:51.935Z,13.60
2019-04-16T23:33:18.743Z,13.50
2019-04-16T23:35:45.640Z,13.50
2019-04-16T23:38:12.475Z,13.50
2019-04-16T23:40:40.829Z,13.50
2019-04-16T23:43:27.680Z,13.50
2019-04-16T23:46:14.219Z,13.60
2019-04-16T23:48:47.938Z,13.60
2019-04-16T23:51:29.789Z,13.60
2019-04-16T23:54:08.005Z,13.50
2019-04-16T23:56:38.855Z,13.50
2019-04-16T23:59:27.804Z,13.50
